Flight Track Log - Related Links

Times and Time Zones

All times are in EDT time to prevent confusion due to time zone crossing. See the GEC8188 flight status page for this flight to view local times or setup timezone preferences in your user account.

Time Position Orientation Groundspeed Altitude Reporting Facility
EDT Latitude Longitude Course Direction KTS MPH feet Rate Location/Type
Fri 04:54:00 PM 57.1982 -21.1472 304° West  Level Estimated
Fri 04:55:00 PM 57.2218 -21.4070 280° West  Level Estimated
Fri 04:56:00 PM 57.2448 -21.6669 279° West  Level Estimated
Fri 04:57:00 PM 57.2673 -21.9272 279° West  Level Estimated
Fri 04:58:00 PM 57.2893 -22.1877 279° West  Level Estimated
Fri 04:59:00 PM 57.3107 -22.4486 279° West  Level Estimated
Fri 05:00:00 PM 57.3316 -22.7098 279° West  Level Estimated
Fri 05:01:00 PM 57.3519 -22.9713 278° West  Level Estimated
Fri 05:02:00 PM 57.3717 -23.2330 278° West  Level Estimated
Fri 05:03:00 PM 57.3909 -23.4950 278° West  Level Estimated
Fri 05:04:00 PM 57.4096 -23.7573 278° West  Level Estimated
Fri 05:05:00 PM 57.4278 -24.0199 277° West  Level Estimated
Fri 05:06:00 PM 57.4454 -24.2827 277° West  Level Estimated
Fri 05:07:00 PM 57.4624 -24.5458 277° West  Level Estimated
Fri 05:08:00 PM 57.4789 -24.8091 277° West  Level Estimated
Fri 05:09:00 PM 57.4949 -25.0726 277° West  Level Estimated
Fri 05:10:00 PM 57.5103 -25.3364 276° West  Level Estimated
Fri 05:11:00 PM 57.5252 -25.6004 276° West  Level Estimated
Fri 05:12:00 PM 57.5395 -25.8646 276° West  Level Estimated
Fri 05:12:00 PM 50.0000 -20.0000 265° West 537 618 34,000  Level ETMS Enhanced Traffic Management System
Fri 05:13:00 PM 57.5532 -26.1290 276° West  Level Estimated
Fri 05:14:00 PM 57.5664 -26.3936 275° West  Level Estimated
Fri 05:15:00 PM 57.5791 -26.6584 275° West  Level Estimated
Fri 05:16:00 PM 57.5912 -26.9233 275° West  Level Estimated
Fri 05:17:00 PM 57.6027 -27.1885 275° West  Level Estimated
Fri 05:18:00 PM 49.8991 -21.6158 264° West 537 618 34,000  Level FlightAware Transoceanic
Fri 05:19:00 PM 49.8828 -21.8461 264° West 537 618 34,000  Level FlightAware Transoceanic
Fri 05:20:00 PM 49.8661 -22.0762 263° West 537 618 34,000  Level FlightAware Transoceanic
Fri 05:21:00 PM 49.8490 -22.3061 263° West 537 618 34,000  Level FlightAware Transoceanic
Fri 05:22:00 PM 49.8314 -22.5359 263° West 537 618 34,000  Level FlightAware Transoceanic
Fri 05:23:00 PM 49.8133 -22.7654 263° West 537 618 34,000  Level FlightAware Transoceanic
Fri 05:24:00 PM 49.7948 -22.9949 263° West 537 618 34,000  Level FlightAware Transoceanic
Fri 05:25:00 PM 49.7758 -23.2241 263° West 537 618 34,000  Level FlightAware Transoceanic
Fri 05:26:00 PM 49.7564 -23.4532 262° West 537 618 34,000  Level FlightAware Transoceanic
Fri 05:27:00 PM 49.7365 -23.6821 262° West 537 618 34,000  Level FlightAware Transoceanic
Fri 05:28:00 PM 49.7162 -23.9107 262° West 537 618 34,000  Level FlightAware Transoceanic
Fri 05:29:00 PM 49.6954 -24.1392 262° West 537 618 34,000  Level FlightAware Transoceanic
Fri 05:30:00 PM 49.6742 -24.3675 262° West 537 618 34,000  Level FlightAware Transoceanic
Fri 05:31:00 PM 49.6525 -24.5956 262° West 537 618 34,000  Level FlightAware Transoceanic
Fri 05:32:00 PM 49.6304 -24.8235 261° West 537 618 34,000  Level FlightAware Transoceanic
Fri 05:33:00 PM 49.6078 -25.0512 261° West 537 618 34,000  Level FlightAware Transoceanic
Fri 05:34:00 PM 49.5848 -25.2787 261° West 537 618 34,000  Level FlightAware Transoceanic
Fri 05:35:00 PM 49.5614 -25.5059 261° West 537 618 34,000  Level FlightAware Transoceanic
Fri 05:36:00 PM 49.5375 -25.7330 261° West 537 618 34,000  Level FlightAware Transoceanic
Fri 05:37:00 PM 49.5131 -25.9598 261° West 537 618 34,000  Level FlightAware Transoceanic
Fri 05:38:00 PM 49.4883 -26.1864 260° West 537 618 34,000  Level FlightAware Transoceanic
Fri 05:39:00 PM 49.4631 -26.4127 260° West 537 618 34,000  Level FlightAware Transoceanic
Fri 05:40:00 PM 49.4374 -26.6388 260° West 537 618 34,000  Level FlightAware Transoceanic
Fri 05:41:00 PM 49.4113 -26.8647 260° West 537 618 34,000  Level FlightAware Transoceanic
Fri 05:42:00 PM 49.3848 -27.0903 260° West 537 618 34,000  Level FlightAware Transoceanic
Fri 05:43:00 PM 49.3578 -27.3157 259° West 537 618 34,000  Level FlightAware Transoceanic
Fri 05:44:00 PM 49.3303 -27.5409 259° West 537 618 34,000  Level FlightAware Transoceanic
Fri 05:45:00 PM 49.3025 -27.7658 259° West 537 618 34,000  Level FlightAware Transoceanic
Fri 05:46:00 PM 49.2742 -27.9904 259° West 537 618 34,000  Level FlightAware Transoceanic
Fri 05:47:00 PM 49.2454 -28.2148 259° West 537 618 34,000  Level FlightAware Transoceanic
Fri 05:48:00 PM 49.2163 -28.4389 259° West 537 618 34,000  Level FlightAware Transoceanic
Fri 05:49:00 PM 49.1867 -28.6627 258° West 537 618 34,000  Level FlightAware Transoceanic
Fri 05:50:00 PM 49.1566 -28.8863 258° West 537 618 34,000  Level FlightAware Transoceanic
Fri 05:51:00 PM 49.1262 -29.1096 258° West 537 618 34,000  Level FlightAware Transoceanic
Fri 05:52:00 PM 49.0953 -29.3326 258° West 537 618 34,000  Level FlightAware Transoceanic
Fri 05:53:00 PM 49.0639 -29.5554 258° West 537 618 34,000  Level FlightAware Transoceanic
Fri 05:54:00 PM 49.0322 -29.7778 258° West 537 618 34,000  Level FlightAware Transoceanic
Fri 05:55:00 PM 49.0014 -29.9901 258° West  Level FlightAware Approximate
Fri 05:56:00 PM 48.9703 -30.2020 257° West  Level FlightAware Approximate
Fri 05:57:00 PM 48.9887 -30.1961 265° West  Level FlightAware Approximate
Fri 05:58:00 PM 48.9758 -30.4125 265° West  Level FlightAware Approximate
Fri 05:59:00 PM 48.9624 -30.6287 265° West  Level FlightAware Approximate
Fri 06:00:00 PM 48.9487 -30.8447 265° West  Level FlightAware Approximate
Fri 06:01:00 PM 48.9346 -31.0607 264° West  Level FlightAware Approximate
Fri 06:02:00 PM 48.9201 -31.2765 264° West  Level FlightAware Approximate
Fri 06:03:00 PM 48.9052 -31.4923 264° West  Level FlightAware Approximate
Fri 06:04:00 PM 48.8899 -31.7078 264° West  Level FlightAware Approximate
Fri 06:05:00 PM 48.8741 -31.9233 264° West  Level FlightAware Approximate
Fri 06:06:00 PM 48.8580 -32.1386 264° West  Level FlightAware Approximate
Fri 06:07:00 PM 48.8415 -32.3538 263° West  Level FlightAware Approximate
Fri 06:08:00 PM 48.8246 -32.5688 263° West  Level FlightAware Approximate
Fri 06:09:00 PM 48.8073 -32.7837 263° West  Level FlightAware Approximate
Fri 06:10:00 PM 48.7895 -32.9984 263° West  Level FlightAware Approximate
Fri 06:11:00 PM 48.7714 -33.2130 263° West  Level FlightAware Approximate
Fri 06:12:00 PM 48.7529 -33.4274 263° West  Level FlightAware Approximate
Fri 06:13:00 PM 48.7340 -33.6416 262° West  Level FlightAware Approximate
Fri 06:14:00 PM 48.7146 -33.8557 262° West  Level FlightAware Approximate
Fri 06:15:00 PM 48.6949 -34.0697 262° West  Level FlightAware Approximate
Fri 06:16:00 PM 48.6748 -34.2834 262° West  Level FlightAware Approximate
Fri 06:17:00 PM 48.6543 -34.4970 262° West  Level FlightAware Approximate
Fri 06:18:00 PM 48.6334 -34.7104 262° West  Level FlightAware Approximate
Fri 06:19:00 PM 48.6121 -34.9236 261° West  Level FlightAware Approximate
Fri 06:20:00 PM 48.5905 -35.1367 261° West  Level FlightAware Approximate
Fri 06:21:00 PM 48.5684 -35.3496 261° West  Level FlightAware Approximate
Fri 06:22:00 PM 48.5459 -35.5622 261° West  Level FlightAware Approximate
Fri 06:23:00 PM 48.5230 -35.7747 261° West  Level FlightAware Approximate
Fri 06:24:00 PM 48.4998 -35.9870 261° West  Level FlightAware Approximate
Fri 06:25:00 PM 48.4762 -36.1991 261° West  Level FlightAware Approximate
Fri 06:26:00 PM 48.4527 -36.4112 261° West  Level FlightAware Approximate
Fri 06:27:00 PM 48.4293 -36.6231 261° West  Level FlightAware Approximate
Fri 06:28:00 PM 48.4055 -36.8349 260° West  Level FlightAware Approximate
Fri 06:29:00 PM 48.3813 -37.0465 260° West  Level FlightAware Approximate
Fri 06:30:00 PM 48.3567 -37.2578 260° West  Level FlightAware Approximate
Fri 06:31:00 PM 48.3317 -37.4690 260° West  Level FlightAware Approximate
Fri 06:32:00 PM 48.3063 -37.6799 260° West  Level FlightAware Approximate
Fri 06:33:00 PM 48.2806 -37.8906 260° West  Level FlightAware Approximate
Fri 06:34:00 PM 48.2544 -38.1012 260° West  Level FlightAware Approximate
Fri 06:35:00 PM 48.2279 -38.3115 259° West  Level FlightAware Approximate
Fri 06:36:00 PM 48.2010 -38.5215 259° West  Level FlightAware Approximate
Fri 06:37:00 PM 48.1737 -38.7314 259° West  Level FlightAware Approximate
Fri 06:38:00 PM 48.1461 -38.9410 259° West  Level FlightAware Approximate
Fri 06:39:00 PM 48.1180 -39.1504 259° West  Level FlightAware Approximate
Fri 06:40:00 PM 48.0896 -39.3596 259° West  Level FlightAware Approximate
Fri 06:41:00 PM 48.0608 -39.5686 258° West  Level FlightAware Approximate
Fri 06:42:00 PM 48.0316 -39.7773 258° West  Level FlightAware Approximate
Fri 06:43:00 PM 48.0020 -39.9857 258° West  Level FlightAware Approximate
Fri 06:44:00 PM 47.9885 -40.1977 265° West  Level FlightAware Approximate
Fri 06:45:00 PM 47.9759 -40.4098 265° West  Level FlightAware Approximate
Fri 06:46:00 PM 47.9628 -40.6218 265° West  Level FlightAware Approximate
Fri 06:47:00 PM 47.9493 -40.8337 265° West  Level FlightAware Approximate
Fri 06:48:00 PM 47.9355 -41.0455 265° West  Level FlightAware Approximate
Fri 06:49:00 PM 47.9212 -41.2572 264° West  Level FlightAware Approximate
Fri 06:50:00 PM 47.9066 -41.4688 264° West  Level FlightAware Approximate
Fri 06:51:00 PM 47.8916 -41.6802 264° West  Level FlightAware Approximate
Fri 06:52:00 PM 47.8762 -41.8915 264° West  Level FlightAware Approximate
Fri 06:53:00 PM 47.8604 -42.1027 264° West  Level FlightAware Approximate
Fri 06:54:00 PM 47.8442 -42.3138 264° West  Level FlightAware Approximate
Fri 06:55:00 PM 47.8276 -42.5247 263° West  Level FlightAware Approximate
Fri 06:56:00 PM 47.8107 -42.7355 263° West  Level FlightAware Approximate
Fri 06:57:00 PM 47.7934 -42.9461 263° West  Level FlightAware Approximate
Fri 06:58:00 PM 47.7756 -43.1566 263° West  Level FlightAware Approximate
Fri 06:59:00 PM 47.7575 -43.3670 263° West  Level FlightAware Approximate
Fri 07:00:00 PM 47.7390 -43.5772 263° West  Level FlightAware Approximate
Fri 07:01:00 PM 47.7201 -43.7873 262° West  Level FlightAware Approximate
Fri 07:02:00 PM 47.7009 -43.9972 262° West  Level FlightAware Approximate
Fri 07:03:00 PM 47.6813 -44.2069 262° West  Level FlightAware Approximate
Fri 07:04:00 PM 47.6612 -44.4165 262° West  Level FlightAware Approximate
Fri 07:05:00 PM 47.6408 -44.6259 262° West  Level FlightAware Approximate
Fri 07:06:00 PM 47.6200 -44.8352 262° West  Level FlightAware Approximate
Fri 07:07:00 PM 47.5989 -45.0443 262° West  Level FlightAware Approximate
Fri 07:08:00 PM 47.5782 -45.2534 262° West  Level FlightAware Approximate
Fri 07:09:00 PM 47.5571 -45.4624 262° West  Level FlightAware Approximate
Fri 07:10:00 PM 47.5356 -45.6711 261° West  Level FlightAware Approximate
Fri 07:11:00 PM 47.5138 -45.8797 261° West  Level FlightAware Approximate
Fri 07:12:00 PM 47.4916 -46.0882 261° West  Level FlightAware Approximate
Fri 07:13:00 PM 47.4690 -46.2964 261° West  Level FlightAware Approximate
Fri 07:14:00 PM 47.4460 -46.5045 261° West  Level FlightAware Approximate
Fri 07:15:00 PM 47.4226 -46.7124 261° West  Level FlightAware Approximate
Fri 07:16:00 PM 47.3989 -46.9201 260° West  Level FlightAware Approximate
Fri 07:17:00 PM 47.3748 -47.1276 260° West  Level FlightAware Approximate
Fri 07:18:00 PM 47.3503 -47.3349 260° West  Level FlightAware Approximate
Fri 07:19:00 PM 47.3255 -47.5420 260° West  Level FlightAware Approximate
Fri 07:20:00 PM 47.3002 -47.7490 260° West  Level FlightAware Approximate
Fri 07:21:00 PM 47.2746 -47.9557 260° West  Level FlightAware Approximate
Fri 07:22:00 PM 47.2487 -48.1622 260° West  Level FlightAware Approximate
Fri 07:23:00 PM 47.2223 -48.3686 259° West  Level FlightAware Approximate
Fri 07:24:00 PM 47.1956 -48.5747 259° West  Level FlightAware Approximate
Fri 07:25:00 PM 47.1685 -48.7806 259° West  Level FlightAware Approximate
Fri 07:26:00 PM 47.1411 -48.9863 259° West  Level FlightAware Approximate
Fri 07:27:00 PM 47.1133 -49.1918 259° West  Level FlightAware Approximate
Fri 07:27:43 PM 47.0720 -49.6260 259° West 512 589 34,000  Level FlightAware ADS-B
Fri 07:28:00 PM 47.0851 -49.3970 259° West  Level FlightAware Approximate
Fri 07:28:28 PM 47.0490 -49.7810 258° West 511 588 34,000  Level FlightAware ADS-B
Fri 07:29:18 PM 47.0280 -49.9320 259° West 511 588 34,000  Level FlightAware ADS-B
Fri 07:29:58 PM 47.0130 -50.0480 259° West 511 588 34,000  Level FlightAware ADS-B
Fri 07:30:43 PM 46.9870 -50.2310 258° West 511 588 34,000  Level FlightAware ADS-B
Fri 07:31:23 PM 46.9720 -50.3750 261° West 510 587 34,000  Level FlightAware ADS-B
Fri 07:32:08 PM 46.9580 -50.5080 261° West 510 587 34,000  Level FlightAware ADS-B
Fri 07:32:48 PM 46.9450 -50.6250 261° West 510 587 34,000  Level FlightAware ADS-B
Fri 07:33:28 PM 46.9330 -50.7410 261° West 510 587 34,000  Level FlightAware ADS-B
Fri 07:34:08 PM 46.9200 -50.8570 261° West 510 587 34,000  Level FlightAware ADS-B
Fri 07:34:58 PM 46.9040 -51.0020 261° West 510 587 34,000 92 Level FlightAware ADS-B
Fri 07:35:13 PM 47.0010 -51.1840 308° West 523 602 34,100 109 Climbing FlightAware ADS-B
Fri 07:35:53 PM 47.0090 -51.3130 275° West 524 603 34,100 -75 Level FlightAware ADS-B
Fri 07:36:33 PM 47.0180 -51.4630 275° West 525 604 34,000  Descending FlightAware ADS-B
Fri 07:37:18 PM 47.0270 -51.6220 275° West 525 604 34,100 71 Climbing FlightAware ADS-B
Fri 07:37:58 PM 47.0350 -51.7650 275° West 525 604 34,100 -71 Level FlightAware ADS-B
Fri 07:38:43 PM 47.0440 -51.9190 275° West 524 603 34,000 -67 Descending FlightAware ADS-B
Fri 07:39:28 PM 47.0530 -52.0800 275° West 523 602 34,000  Level FlightAware ADS-B
Fri 07:40:08 PM 47.0600 -52.2190 274° West 523 602 34,000  Level FlightAware ADS-B
Fri 07:40:53 PM 47.0690 -52.3820 275° West 522 601 34,000  Level FlightAware ADS-B
Fri 07:41:33 PM 47.0760 -52.5230 274° West 521 600 34,000  Level FlightAware ADS-B
Fri 07:42:13 PM 47.0830 -52.6620 274° West 520 598 34,000  Level FlightAware ADS-B
Fri 07:42:58 PM 47.0900 -52.8190 274° West 520 598 34,000  Level FlightAware ADS-B
Fri 07:43:38 PM 47.0970 -52.9580 274° West 520 598 34,000  Level FlightAware ADS-B
Fri 07:44:23 PM 47.1040 -53.1190 274° West 520 598 34,000  Level FlightAware ADS-B
Fri 07:45:03 PM 47.1100 -53.2600 274° West 521 600 34,000  Level FlightAware ADS-B
Fri 07:45:43 PM 47.1160 -53.4000 274° West 521 600 34,000  Level FlightAware ADS-B
Fri 07:46:28 PM 47.1230 -53.5560 274° West 520 598 34,000  Level FlightAware ADS-B
Fri 07:47:08 PM 47.1280 -53.6970 273° West 521 600 34,000  Level FlightAware ADS-B
Fri 07:47:53 PM 47.1340 -53.8590 273° West 521 600 34,000  Level FlightAware ADS-B
Fri 07:48:33 PM 47.1400 -54.0010 274° West 522 601 34,000  Level FlightAware ADS-B
Fri 07:49:13 PM 47.1450 -54.1430 273° West 523 602 34,000  Level FlightAware ADS-B
Fri 07:49:58 PM 47.1500 -54.2970 273° West 523 602 34,000  Level FlightAware ADS-B
Fri 07:50:38 PM 47.1550 -54.4400 273° West 523 602 34,000  Level FlightAware ADS-B
Fri 07:51:23 PM 47.1600 -54.6030 273° West 523 602 34,000  Level FlightAware ADS-B
Fri 07:52:03 PM 47.1650 -54.7440 273° West 523 602 34,000  Level FlightAware ADS-B
Fri 07:52:43 PM 47.1680 -54.8730 272° West 523 602 34,000  Level FlightAware ADS-B
Fri 07:53:23 PM 47.1720 -55.0010 273° West 522 601 34,000  Level FlightAware ADS-B
Fri 07:54:03 PM 47.1760 -55.1530 272° West 522 601 34,000  Level FlightAware ADS-B
Fri 07:54:48 PM 47.1810 -55.3300 272° West 521 600 34,000  Level FlightAware ADS-B
Fri 07:55:33 PM 47.1850 -55.4860 272° West 520 598 34,000  Level FlightAware ADS-B
Fri 07:56:08 PM 47.1880 -55.6120 272° West 519 597 34,000  Level FlightAware ADS-B
Fri 07:56:58 PM 47.1910 -55.7760 272° West 518 596 34,000  Level FlightAware ADS-B
Fri 07:57:38 PM 47.1940 -55.9140 272° West 518 596 34,000  Level FlightAware ADS-B
Fri 07:58:23 PM 47.1970 -56.0870 272° West 517 595 34,000  Level FlightAware ADS-B
Fri 07:59:03 PM 47.2000 -56.2210 272° West 517 595 34,000  Level FlightAware ADS-B
Fri 07:59:43 PM 47.2020 -56.3690 271° West 516 594 34,000  Level FlightAware ADS-B
Fri 08:00:28 PM 47.2050 -56.5230 272° West 514 592 34,000  Level FlightAware ADS-B
Fri 08:01:08 PM 47.2070 -56.6620 271° West 515 593 34,000  Level FlightAware ADS-B
Fri 08:01:48 PM 47.2080 -56.8030 271° West 515 593 34,000  Level FlightAware ADS-B
Fri 08:02:33 PM 47.2100 -56.9570 271° West 514 592 34,000  Level FlightAware ADS-B
Fri 08:03:13 PM 47.2120 -57.0960 271° West 514 592 34,000  Level FlightAware ADS-B
Fri 08:03:58 PM 47.2130 -57.2560 271° West 513 590 34,000  Level FlightAware ADS-B
Fri 08:04:28 PM 47.2140 -57.3510 271° West 512 589 34,000  Level FlightAware ADS-B
Fri 08:05:13 PM 47.2150 -57.5210 271° West 511 588 34,000 63 Level FlightAware ADS-B
Fri 08:06:03 PM 47.2160 -57.6940 271° West 509 586 34,100  Climbing FlightAware ADS-B
Fri 08:06:58 PM 47.2170 -57.8830 271° West 505 581 34,000 -55 Descending FlightAware ADS-B
Fri 08:07:53 PM 47.2170 -58.0450 270° West 494 568 34,000  Level FlightAware ADS-B
Fri 08:08:33 PM 47.2170 -58.1590 270° West 494 568 34,000  Level FlightAware ADS-B
Fri 08:09:13 PM 47.2170 -58.2730 270° West 494 568 34,000  Level FlightAware ADS-B
Fri 08:09:53 PM 47.2170 -58.3880 270° West 494 568 34,000  Level FlightAware ADS-B
Fri 08:10:43 PM 47.2170 -58.5310 270° West 494 568 34,000  Level FlightAware ADS-B
Fri 08:11:23 PM 47.2170 -58.6450 270° West 494 568 34,000  Level FlightAware ADS-B
Fri 08:12:03 PM 47.2170 -58.7590 270° West 494 568 34,000  Level FlightAware ADS-B
Fri 08:12:43 PM 47.2170 -58.8740 270° West 494 568 34,000 67 Level FlightAware ADS-B
Fri 08:13:33 PM 47.2130 -59.1680 269° West 480 552 34,100 71 Climbing FlightAware ADS-B
Fri 08:14:08 PM 47.2120 -59.2760 269° West 480 552 34,100 -75 Level FlightAware ADS-B
Fri 08:14:53 PM 47.2100 -59.4340 269° West 481 554 34,000 -67 Descending FlightAware ADS-B
Fri 08:15:38 PM 47.2080 -59.5660 269° West 481 554 34,000  Level FlightAware ADS-B
Fri 08:16:18 PM 47.2050 -59.6770 268° West 481 554 34,000  Level FlightAware ADS-B
Fri 08:16:58 PM 47.2020 -59.7880 268° West 481 554 34,000  Level FlightAware ADS-B
Fri 08:17:38 PM 47.2000 -59.8990 269° West 481 554 34,000  Level FlightAware ADS-B
Fri 08:18:18 PM 47.2010 -60.1050 270° West 482 555 34,000  Level FlightAware ADS-B
Fri 08:19:03 PM 47.1990 -60.2490 269° West 483 556 34,000  Level FlightAware ADS-B
Fri 08:19:48 PM 47.1960 -60.3860 268° West 483 556 34,000  Level FlightAware ADS-B
Fri 08:20:28 PM 47.1930 -60.4980 268° West 483 556 34,000  Level FlightAware ADS-B
Fri 08:21:08 PM 47.1900 -60.6090 268° West 483 556 34,000  Level FlightAware ADS-B
Fri 08:21:48 PM 47.1880 -60.7210 269° West 483 556 34,000  Level FlightAware ADS-B
Fri 08:22:33 PM 47.1840 -60.9340 268° West 485 558 34,000 67 Level FlightAware ADS-B
Fri 08:23:18 PM 47.1800 -61.0920 268° West 485 558 34,100 71 Climbing FlightAware ADS-B
Fri 08:23:58 PM 47.1760 -61.2090 267° West 485 558 34,100  Level FlightAware ADS-B
Fri 08:24:38 PM 47.1720 -61.3210 267° West 485 558 34,100  Level FlightAware ADS-B
Fri 08:25:18 PM 47.1680 -61.4330 267° West 485 558 34,100  Level FlightAware ADS-B
Fri 08:26:08 PM 47.1630 -61.5730 267° West 485 558 34,100  Level FlightAware ADS-B
Fri 08:26:48 PM 47.1590 -61.6850 267° West 485 558 34,100  Level FlightAware ADS-B
Fri 08:27:28 PM 47.1550 -61.7970 267° West 485 558 34,100  Level FlightAware ADS-B
Fri 08:27:58 PM 47.1520 -61.8810 267° West 485 558 34,100  Level FlightAware ADS-B
Fri 08:28:38 PM 47.1480 -61.9930 267° West 485 558 34,100  Level FlightAware ADS-B
Fri 08:29:18 PM 47.1440 -62.1050 267° West 485 558 34,100  Level FlightAware ADS-B
Fri 08:29:58 PM 47.1400 -62.2170 267° West 485 558 34,100  Level FlightAware ADS-B
Fri 08:30:48 PM 47.1350 -62.3570 267° West 485 558 34,100  Level FlightAware ADS-B
Fri 08:31:28 PM 47.1310 -62.4690 267° West 485 558 34,100  Level FlightAware ADS-B
Fri 08:32:08 PM 47.1270 -62.5810 267° West 485 558 34,100  Level FlightAware ADS-B
Fri 08:32:48 PM 47.1230 -62.6930 267° West 485 558 34,100 -1,355 Level FlightAware ADS-B
Fri 08:33:41 PM 47.1000 -63.1167 267° West 490 564 32,000 -1,115 Descending Gander Center
Fri 08:34:41 PM 47.1000 -63.3167 270° West 490 564 32,000  Level Gander Center
Fri 08:35:41 PM 47.0667 -63.5167 256° West 490 564 32,000  Level Gander Center
Fri 08:36:41 PM 47.0667 -63.7333 270° West 490 564 32,000  Level Gander Center
Fri 08:37:41 PM 47.0667 -63.9000 270° West 490 564 32,000  Level Gander Center
Fri 08:38:54 PM 47.0500 -64.1500 265° West 480 552 32,000  Level Moncton Center
Fri 08:39:54 PM 47.0333 -64.3500 263° West 480 552 32,000  Level Moncton Center
Fri 08:40:54 PM 47.0333 -64.5500 270° West 490 564 32,000  Level Moncton Center
Fri 08:41:54 PM 47.0167 -64.7333 262° West 480 552 32,000  Level Moncton Center
Fri 08:42:54 PM 47.0000 -64.9667 264° West 490 564 32,000  Level Moncton Center
Fri 08:43:54 PM 47.0000 -65.1333 270° West 490 564 32,000  Level Moncton Center
Fri 08:44:54 PM 46.9833 -65.3500 264° West 490 564 32,000  Level Moncton Center
Fri 08:45:54 PM 46.9667 -65.5500 263° West 490 564 32,000  Level Moncton Center
Fri 08:46:54 PM 46.9500 -65.7500 263° West 490 564 32,000  Level Moncton Center
Fri 08:47:54 PM 46.9333 -65.9333 262° West 490 564 32,000  Level Moncton Center
Fri 08:48:54 PM 46.9333 -66.1667 270° West 490 564 32,000  Level Moncton Center
Fri 08:49:54 PM 46.9167 -66.3500 262° West 500 575 32,000  Level Moncton Center
Fri 08:50:54 PM 46.9000 -66.5500 263° West 500 575 32,000  Level Moncton Center
Fri 08:51:54 PM 46.8833 -66.7500 263° West 500 575 32,000 14 Level Moncton Center
Fri 08:57:48 PM 46.7640 -67.9520 263° West 513 590 32,100  Climbing FlightAware ADS-B
Fri 08:58:33 PM 46.7370 -68.1120 256° West 509 586 32,000 -71 Descending FlightAware ADS-B
Fri 08:59:13 PM 46.7170 -68.2370 257° West 507 583 32,000 300 Level FlightAware ADS-B
Fri 08:59:53 PM 46.6940 -68.3770 257° West 505 581 32,400 825 Climbing FlightAware ADS-B
Fri 09:00:33 PM 46.6720 -68.5110 257° West 506 582 33,100 988 Climbing FlightAware ADS-B
Fri 09:01:18 PM 46.6470 -68.6600 256° West 507 583 33,800 960 Climbing FlightAware ADS-B
Fri 09:01:48 PM 46.6320 -68.7500 256° West 498 573 34,300 977 Climbing FlightAware ADS-B
Fri 09:02:44 PM 46.6022 -68.9467 256° West 507 583 35,200 879 Climbing Boston Center
Fri 09:03:44 PM 46.5681 -69.1389 256° West 502 578 36,000 400 Climbing Boston Center
Fri 09:04:44 PM 46.5317 -69.3311 255° West 497 572 36,000  Level Boston Center
Fri 09:05:44 PM 46.4972 -69.5289 256° West 497 572 36,000  Level Boston Center
Fri 09:06:44 PM 46.4622 -69.7206 255° West 497 572 36,000  Level Boston Center
Fri 09:07:44 PM 46.4272 -69.9150 255° West 497 572 36,000  Level Boston Center
Fri 09:08:54 PM 46.3833 -70.1500 255° West 490 564 36,000  Level Moncton Center
Fri 09:09:54 PM 46.3333 -70.3333 249° West 490 564 36,000  Level Moncton Center
Fri 09:10:54 PM 46.3167 -70.5333 263° West 500 575 36,000 50 Level Moncton Center
Fri 09:11:54 PM 46.2667 -70.7167 249° West 500 575 36,100  Climbing Moncton Center
Fri 09:12:54 PM 46.2333 -70.9167 257° West 490 564 36,000 -50 Descending Moncton Center
Fri 09:13:54 PM 46.2000 -71.1000 255° West 490 564 36,000  Level Moncton Center
Fri 09:14:54 PM 46.1667 -71.2833 255° West 490 564 36,000 50 Level Moncton Center
Fri 09:15:54 PM 46.1167 -71.5000 252° West 490 564 36,100 50 Climbing Moncton Center
Fri 09:16:54 PM 46.1000 -71.6667 262° West 490 564 36,100 -50 Level Moncton Center
Fri 09:17:54 PM 46.0500 -71.8500 249° West 490 564 36,000 -50 Descending Moncton Center
Fri 09:18:54 PM 46.0167 -72.0667 258° West 490 564 36,000  Level Moncton Center
Fri 09:19:54 PM 45.9667 -72.2333 247° West 490 564 36,000  Level Moncton Center
Fri 09:20:54 PM 45.9333 -72.4333 257° West 490 564 36,000  Level Moncton Center
Fri 09:21:54 PM 45.9000 -72.6000 254° West 490 564 36,000  Level Moncton Center
Fri 09:22:54 PM 45.8667 -72.7833 255° West 480 552 36,000  Level Moncton Center
Fri 09:23:54 PM 45.8167 -72.9833 250° West 490 564 36,000 50 Level Moncton Center
Fri 09:24:54 PM 45.7833 -73.1667 255° West 490 564 36,100  Climbing Moncton Center
Fri 09:25:54 PM 45.7333 -73.3500 249° West 490 564 36,000 -50 Descending Moncton Center
Fri 09:26:54 PM 45.7000 -73.5333 255° West 480 552 36,000 15 Level Moncton Center
Fri 09:32:23 PM 45.4940 -74.5090 255° West 481 554 36,100 16 Climbing FlightAware ADS-B
Fri 09:33:08 PM 45.4640 -74.6390 252° West 478 550 36,100 -71 Level FlightAware ADS-B
Fri 09:33:48 PM 45.4370 -74.7590 252° West 475 547 36,000 -75 Descending FlightAware ADS-B
Fri 09:34:28 PM 45.4100 -74.8770 252° West 474 545 36,000  Level FlightAware ADS-B
Fri 09:35:13 PM 45.3780 -75.0130 252° West 471 542 36,000  Level FlightAware ADS-B
Fri 09:35:53 PM 45.3510 -75.1300 252° West 471 542 36,000  Level FlightAware ADS-B
Fri 09:36:38 PM 45.3210 -75.2590 252° West 472 543 36,000  Level FlightAware ADS-B
Fri 09:37:18 PM 45.2930 -75.3780 252° West 475 547 36,000 71 Level FlightAware ADS-B
Fri 09:38:03 PM 45.2620 -75.5080 251° West 476 548 36,100 71 Climbing FlightAware ADS-B
Fri 09:38:43 PM 45.2320 -75.6310 251° West 478 550 36,100  Level FlightAware ADS-B
Fri 09:39:23 PM 45.2040 -75.7490 251° West 477 549 36,100 -71 Level FlightAware ADS-B
Fri 09:40:08 PM 45.1730 -75.8790 251° West 475 547 36,000 -71 Descending FlightAware ADS-B
Fri 09:40:48 PM 45.1440 -75.9960 251° West 475 547 36,000  Level FlightAware ADS-B
Fri 09:41:33 PM 45.1120 -76.1290 251° West 473 544 36,000  Level FlightAware ADS-B
Fri 09:42:13 PM 45.0830 -76.2470 251° West 472 543 36,000  Level FlightAware ADS-B
Fri 09:42:53 PM 45.0550 -76.3610 251° West 470 541 36,000  Level FlightAware ADS-B
Fri 09:43:38 PM 45.0240 -76.4850 251° West 467 537 36,000  Level FlightAware ADS-B
Fri 09:44:18 PM 44.9970 -76.5950 251° West 466 536 36,000  Level FlightAware ADS-B
Fri 09:44:58 PM 44.9680 -76.7100 250° West 465 535 36,000  Level FlightAware ADS-B
Fri 09:45:43 PM 44.9350 -76.8400 250° West 465 535 36,000  Level FlightAware ADS-B
Fri 09:46:23 PM 44.9060 -76.9560 251° West 466 536 36,000  Level FlightAware ADS-B
Fri 09:47:03 PM 44.8790 -77.0620 250° West 470 541 36,000  Level FlightAware ADS-B
Fri 09:47:48 PM 44.8440 -77.1980 250° West 472 543 36,000 67 Level FlightAware ADS-B
Fri 09:48:33 PM 44.8120 -77.3250 250° West 474 545 36,100 60 Climbing FlightAware ADS-B
Fri 09:49:28 PM 44.7680 -77.4930 250° West 474 545 36,100 -63 Level FlightAware ADS-B
Fri 09:50:08 PM 44.7390 -77.6050 250° West 473 544 36,000 -71 Descending FlightAware ADS-B
Fri 09:50:53 PM 44.7050 -77.7340 250° West 473 544 36,000  Level FlightAware ADS-B
Fri 09:51:33 PM 44.6750 -77.8480 250° West 472 543 36,000  Level FlightAware ADS-B
Fri 09:52:13 PM 44.6440 -77.9660 250° West 472 543 36,000  Level FlightAware ADS-B
Fri 09:52:58 PM 44.6100 -78.0940 250° West 471 542 36,000  Level FlightAware ADS-B
Fri 09:53:38 PM 44.5800 -78.2090 250° West 469 540 36,000  Level FlightAware ADS-B
Fri 09:54:23 PM 44.5470 -78.3290 249° West 469 540 36,000  Level FlightAware ADS-B
Fri 09:55:03 PM 44.5150 -78.4510 250° West 467 537 36,000  Level FlightAware ADS-B
Fri 09:55:43 PM 44.4850 -78.5620 249° West 465 535 36,000  Level FlightAware ADS-B
Fri 09:56:23 PM 44.4520 -78.6800 249° West 465 535 36,000  Level FlightAware ADS-B
Fri 09:58:33 PM 44.3540 -79.0340 249° West 468 539 36,000  Level FlightAware ADS-B
Fri 09:59:13 PM 44.3240 -79.1450 249° West 469 540 36,000  Level FlightAware ADS-B
Fri 09:59:58 PM 44.2880 -79.2730 249° West 470 541 36,000  Level FlightAware ADS-B
Fri 10:00:38 PM 44.2580 -79.3810 249° West 471 542 36,000 71 Level FlightAware ADS-B
Fri 10:01:23 PM 44.2220 -79.5080 248° West 472 543 36,100 71 Climbing FlightAware ADS-B
Fri 10:02:03 PM 44.1890 -79.6250 249° West 473 544 36,100  Level FlightAware ADS-B
Fri 10:02:43 PM 44.1570 -79.7390 249° West 472 543 36,100  Level FlightAware ADS-B
Fri 10:03:28 PM 44.1210 -79.8650 248° West 470 541 36,100 -71 Level FlightAware ADS-B
Fri 10:04:08 PM 44.0910 -79.9720 249° West 471 542 36,000 -75 Descending FlightAware ADS-B
Fri 10:04:48 PM 44.0570 -80.0880 248° West 470 541 36,000  Level FlightAware ADS-B
Fri 10:05:33 PM 44.0210 -80.2130 248° West 469 540 36,000  Level FlightAware ADS-B
Fri 10:06:13 PM 43.9890 -80.3230 248° West 469 540 36,000  Level FlightAware ADS-B
Fri 10:06:58 PM 43.9510 -80.4510 248° West 469 540 36,000  Level FlightAware ADS-B
Fri 10:07:38 PM 43.9190 -80.5620 248° West 470 541 36,000  Level FlightAware ADS-B
Fri 10:08:13 PM 43.8900 -80.6590 247° West 470 541 36,000 71 Level FlightAware ADS-B
Fri 10:09:03 PM 43.8510 -80.7990 249° West 469 540 36,100 67 Climbing FlightAware ADS-B
Fri 10:09:43 PM 43.8250 -80.9120 252° West 469 540 36,100 -75 Level FlightAware ADS-B
Fri 10:10:23 PM 43.7980 -81.0250 252° West 467 537 36,000 -71 Descending FlightAware ADS-B
Fri 10:11:08 PM 43.7670 -81.1540 252° West 465 535 36,000  Level FlightAware ADS-B
Fri 10:11:48 PM 43.7400 -81.2680 252° West 464 534 36,000  Level FlightAware ADS-B
Fri 10:12:33 PM 43.7110 -81.3920 252° West 464 534 36,000  Level FlightAware ADS-B
Fri 10:13:13 PM 43.6830 -81.5060 251° West 463 533 36,000  Level FlightAware ADS-B
Fri 10:13:53 PM 43.6560 -81.6170 251° West 462 532 36,000  Level FlightAware ADS-B
Fri 10:14:38 PM 43.6250 -81.7440 251° West 461 531 36,000  Level FlightAware ADS-B
Fri 10:15:18 PM 43.5980 -81.8540 251° West 462 532 36,000  Level FlightAware ADS-B
Fri 10:16:03 PM 43.5670 -81.9780 251° West 464 534 36,000  Level FlightAware ADS-B
Fri 10:16:43 PM 43.5410 -82.0860 252° West 466 536 36,000 75 Level FlightAware ADS-B
Fri 10:17:23 PM 43.5120 -82.2020 251° West 467 537 36,100 75 Climbing FlightAware ADS-B
Fri 10:18:03 PM 43.4810 -82.3230 251° West 468 539 36,100  Level FlightAware ADS-B
Fri 10:18:53 PM 43.4490 -82.4520 251° West 468 539 36,100 -60 Level FlightAware ADS-B
Fri 10:19:43 PM 43.4140 -82.5910 251° West 466 536 36,000  Descending FlightAware ADS-B
Fri 10:20:23 PM 43.3860 -82.6990 250° West 463 533 36,100  Climbing FlightAware ADS-B
Fri 10:21:03 PM 43.3590 -82.8180 253° West 458 527 36,000 -63 Descending FlightAware ADS-B
Fri 10:21:58 PM 43.3310 -82.9600 255° West 453 521 36,000  Level FlightAware ADS-B
Fri 10:22:48 PM 43.3030 -83.1000 255° West 451 519 36,000  Level FlightAware ADS-B
Fri 10:23:28 PM 43.2820 -83.2020 254° West 454 522 36,000  Level FlightAware ADS-B
Fri 10:24:08 PM 43.2560 -83.3290 254° West 459 528 36,000 71 Level FlightAware ADS-B
Fri 10:24:53 PM 43.2320 -83.4450 254° West 462 532 36,100 75 Climbing FlightAware ADS-B
Fri 10:25:28 PM 43.2090 -83.5560 254° West 465 535 36,100  Level FlightAware ADS-B
Fri 10:26:18 PM 43.1810 -83.6920 254° West 463 533 36,100 -60 Level FlightAware ADS-B
Fri 10:27:08 PM 43.1510 -83.8350 254° West 458 527 36,000 -57 Descending FlightAware ADS-B
Fri 10:28:03 PM 43.1220 -83.9720 254° West 457 526 36,000  Level FlightAware ADS-B
Fri 10:28:48 PM 43.0940 -84.1030 254° West 455 524 36,000  Level FlightAware ADS-B
Fri 10:29:28 PM 43.0690 -84.2220 254° West 459 528 36,000 -494 Level FlightAware ADS-B
Fri 10:30:13 PM 43.0420 -84.3490 254° West 464 534 35,300 -988 Descending FlightAware ADS-B
Fri 10:30:53 PM 43.0160 -84.4700 254° West 468 539 34,600 -988 Descending FlightAware ADS-B
Fri 10:31:38 PM 42.9860 -84.6090 254° West 474 545 33,900 -988 Descending FlightAware ADS-B
Fri 10:32:18 PM 42.9610 -84.7230 253° West 473 544 33,200 -988 Descending FlightAware ADS-B
Fri 10:33:03 PM 42.9330 -84.8490 253° West 479 551 32,500 -847 Descending FlightAware ADS-B
Fri 10:33:43 PM 42.9060 -84.9690 253° West 483 556 32,000 -375 Descending FlightAware ADS-B
Fri 10:34:23 PM 42.8810 -85.0830 253° West 481 554 32,000  Level FlightAware ADS-B
Fri 10:35:08 PM 42.8510 -85.2130 253° West 483 556 32,000 -424 Level FlightAware ADS-B
Fri 10:35:48 PM 42.8260 -85.3290 254° West 485 558 31,400 -2,047 Descending FlightAware ADS-B
Fri 10:36:33 PM 42.7950 -85.4640 253° West 488 562 29,100 -2,329 Descending FlightAware ADS-B
Fri 10:37:13 PM 42.7720 -85.5810 255° West 470 541 28,100 -2,118 Descending FlightAware ADS-B
Fri 10:37:58 PM 42.7500 -85.7070 257° West 473 544 26,100 -2,329 Descending FlightAware ADS-B
Fri 10:38:38 PM 42.7290 -85.8220 256° West 468 539 24,800 -2,025 Descending FlightAware ADS-B
Fri 10:39:18 PM 42.7080 -85.9390 256° West 455 524 23,400 -1,906 Descending FlightAware ADS-B
Fri 10:40:03 PM 42.6860 -86.0590 256° West 433 498 22,100 -1,976 Descending FlightAware ADS-B
Fri 10:40:43 PM 42.6660 -86.1640 256° West 428 493 20,600 -2,118 Descending FlightAware ADS-B
Fri 10:41:28 PM 42.6460 -86.2740 256° West 415 478 19,100 -1,765 Descending FlightAware ADS-B
Fri 10:42:08 PM 42.6260 -86.3780 255° West 405 466 18,100 -1,275 Descending FlightAware ADS-B
Fri 10:42:48 PM 42.6080 -86.4740 256° West 409 471 17,400 -988 Descending FlightAware ADS-B
Fri 10:43:33 PM 42.5870 -86.5870 256° West 404 465 16,700 -988 Descending FlightAware ADS-B
Fri 10:44:13 PM 42.5680 -86.6860 255° West 403 464 16,000 -975 Descending FlightAware ADS-B
Fri 10:44:53 PM 42.5470 -86.7770 253° West 394 453 15,400 -988 Descending FlightAware ADS-B
Fri 10:45:38 PM 42.5190 -86.8800 250° West 374 430 14,600 -1,500 Descending FlightAware ADS-B
Fri 10:46:13 PM 42.4970 -86.9600 250° West 370 426 13,400 -1,059 Descending FlightAware ADS-B
Fri 10:47:03 PM 42.4700 -87.0580 250° West 375 432 13,100 -1,600 Descending FlightAware ADS-B
Fri 10:47:43 PM 42.4450 -87.1520 250° West 366 421 11,000 -2,100 Descending FlightAware ADS-B
Fri 10:48:23 PM 42.4200 -87.2410 249° West 367 422 10,300 -800 Descending FlightAware ADS-B
Fri 10:48:58 PM 42.4010 -87.3120 250° West 364 419 10,000 -300 Descending FlightAware ADS-B
Fri 10:49:23 PM 42.3850 -87.3700 250° West 364 419 10,000  Level FlightAware ADS-B
Fri 10:49:38 PM 42.3770 -87.4000 250° West 363 418 10,000  Level FlightAware ADS-B
Fri 10:50:08 PM 42.3590 -87.4630 249° West 364 419 10,000  Level FlightAware ADS-B
Fri 10:50:33 PM 42.3410 -87.5190 247° West 360 414 10,000  Level FlightAware ADS-B
Fri 10:51:03 PM 42.3090 -87.5660 227° Southwest 351 404 10,000  Level FlightAware ADS-B
Fri 10:51:33 PM 42.2710 -87.6060 218° Southwest 352 405 10,000  Level FlightAware ADS-B
Fri 10:51:58 PM 42.2400 -87.6390 218° Southwest 335 386 10,000 -109 Level FlightAware ADS-B
Fri 10:52:28 PM 42.2060 -87.6760 219° Southwest 305 351 9,900 -436 Descending FlightAware ADS-B
Fri 10:52:53 PM 42.1770 -87.7060 217° Southwest 290 334 9,600 -873 Descending FlightAware ADS-B
Fri 10:53:23 PM 42.1460 -87.7390 218° Southwest 281 323 9,100 -1,067 Descending FlightAware ADS-B
Fri 10:53:38 PM 42.1310 -87.7550 218° Southwest 280 322 8,800 -1,050 Descending FlightAware ADS-B
Fri 10:54:03 PM 42.1060 -87.7820 219° Southwest 277 319 8,400 -1,050 Descending FlightAware ADS-B
Fri 10:54:18 PM 42.0930 -87.7980 222° Southwest 280 322 8,100 -1,067 Descending FlightAware ADS-B
Fri 10:54:48 PM 42.0730 -87.8450 240° Southwest 285 328 7,600 -982 Descending FlightAware ADS-B
Fri 10:55:13 PM 42.0570 -87.8860 242° Southwest 284 327 7,200 -655 Descending FlightAware ADS-B
Fri 10:55:43 PM 42.0430 -87.9330 248° West 293 337 7,000 -343 Descending FlightAware ADS-B
Fri 10:55:48 PM 42.0430 -87.9400 270° West 295 339 7,000  Level FlightAware ADS-B
Fri 10:56:23 PM 42.0430 -88.0030 270° West 296 341 7,000  Level FlightAware ADS-B
Fri 10:56:53 PM 42.0440 -88.0580 271° West 296 341 7,000 -86 Level FlightAware ADS-B
Fri 10:57:33 PM 42.0450 -88.1250 271° West 265 305 6,900 -554 Descending FlightAware ADS-B
Fri 10:57:58 PM 42.0460 -88.1670 272° West 258 297 6,400 -1,091 Descending FlightAware ADS-B
Fri 10:58:28 PM 42.0470 -88.2180 272° West 257 296 5,900 -900 Descending FlightAware ADS-B
Fri 10:58:38 PM 42.0470 -88.2310 270° West 251 289 5,800 -600 Descending FlightAware ADS-B
Fri 10:58:58 PM 42.0470 -88.2630 270° West 230 265 5,600 -514 Descending FlightAware ADS-B
Fri 10:59:13 PM 42.0380 -88.2800 235° Southwest 196 226 5,500 -600 Descending FlightAware ADS-B
Fri 10:59:28 PM 42.0260 -88.2860 200° South 171 197 5,300 -600 Descending FlightAware ADS-B
Fri 10:59:53 PM 42.0080 -88.2890 187° South 168 193 5,100 -450 Descending FlightAware ADS-B
Fri 11:00:08 PM 41.9970 -88.2910 188° South 164 189 5,000 -200 Descending FlightAware ADS-B
Fri 11:00:23 PM 41.9850 -88.2930 187° South 164 189 5,000  Level FlightAware ADS-B
Fri 11:00:38 PM 41.9750 -88.2910 172° South 155 178 5,000  Level FlightAware ADS-B
Fri 11:00:48 PM 41.9700 -88.2840 134° Southeast 151 174 5,000  Level FlightAware ADS-B
Fri 11:01:18 PM 41.9680 -88.2580 96° East 156 180 5,000  Level FlightAware ADS-B
Fri 11:01:33 PM 41.9690 -88.2410 85° East 158 182 5,000 -150 Level FlightAware ADS-B
Fri 11:01:58 PM 41.9690 -88.2190 90° East 157 181 4,900 -720 Descending FlightAware ADS-B
Fri 11:02:23 PM 41.9690 -88.1920 90° East 160 184 4,400 -1,080 Descending FlightAware ADS-B
Fri 11:02:48 PM 41.9690 -88.1670 90° East 154 177 4,000 -800 Descending FlightAware ADS-B
Fri 11:03:23 PM 41.9690 -88.1340 90° East 156 180 3,600 -800 Descending FlightAware ADS-B
Fri 11:03:48 PM 41.9690 -88.1090 90° East 156 180 3,200 -873 Descending FlightAware ADS-B
Fri 11:04:18 PM 41.9690 -88.0810 90° East 153 176 2,800 -800 Descending FlightAware ADS-B
Fri 11:04:33 PM 41.9690 -88.0650 90° East 151 174 2,600 -800 Descending FlightAware ADS-B
Fri 11:05:03 PM 41.9690 -88.0400 90° East 148 170 2,200 -764 Descending FlightAware ADS-B
Fri 11:05:28 PM 41.9690 -88.0160 90° East 148 170 1,900 -750 Descending FlightAware ADS-B
Fri 11:05:43 PM 41.9690 -88.0020 90° East 138 159 1,700 -667 Descending FlightAware ADS-B
Fri 11:06:13 PM 41.9690 -87.9790 90° East 131 151 1,400 -764 Descending FlightAware ADS-B
Fri 11:06:38 PM 41.9690 -87.9540 90° East 147 169 1,000 -840 Descending FlightAware ADS-B
Fri 11:07:03 PM 41.9690 -87.9340 90° East 149 171 700 -720 Descending FlightAware ADS-B

Login

Don't have an account? Register now (free) for customized features, flight alerts, and more!